This is the latest recevied weather packets stored in our database for station/object K6MLE. If no packets are shown the sender has not sent any weather packets the latest 10 day(s).
| Time | Temp. | Humidity | Pressure | Rain* | Wind** | Luminosity | Snow |
|---|---|---|---|---|---|---|---|
| 1777858817 | 13.33° C | 81% | 1011 hPa | 0 mm | - | - | - |
| 1777845617 | 12.78° C | 81% | 1011.2 hPa | 0 mm | - | - | - |
| 1777844417 | 12.78° C | 80% | 1011.2 hPa | 0 mm | - | - | - |
| 1777843837 | 12.78° C | 81% | 1011.3 hPa | 0 mm | - | - | - |
| 1777840217 | 14.44° C | 76% | 1011.5 hPa | 0 mm | - | - | - |
| 1777838437 | 15° C | 74% | 1011.1 hPa | 0 mm | - | - | - |
| 1777837217 | 15.56° C | 72% | 1011.4 hPa | 0 mm | - | - | - |
| 1777835417 | 15.56° C | 75% | 1011.4 hPa | 0 mm | - | - | - |
| 1777834857 | 15° C | 77% | 1011.3 hPa | 0 mm | - | - | - |
| 1777833017 | 14.44° C | 79% | 1011.2 hPa | 0 mm | - | - | - |
| 1777831837 | 13.89° C | 77% | 1011.2 hPa | 0 mm | - | - | - |
| 1777831217 | 13.89° C | 79% | 1011.1 hPa | 0 mm | - | - | - |
| 1777828217 | 11.67° C | 84% | 1010.8 hPa | 0 mm | - | - | - |
| 1777822816 | 10° C | 90% | 1010.1 hPa | 0 mm | - | - | - |
| 1777818621 | 10° C | 95% | 1009.8 hPa | 0 mm | - | - | - |
| 1777813216 | 10° C | 94% | 1009 hPa | 0 mm | - | - | - |
| 1777812041 | 10° C | 93% | 1008.9 hPa | 0 mm | - | - | - |
| 1777810216 | 10.56° C | 93% | 1008.7 hPa | 0 mm | - | - | - |
| 1777807856 | 10.56° C | 93% | 1009 hPa | 0 mm | - | - | - |
| 1777805416 | 11.11° C | 92% | 1009 hPa | 0 mm | - | - | - |
| 1777802416 | 12.22° C | 92% | 1009 hPa | 0 mm | - | - | - |
| 1777801216 | 12.22° C | 92% | 1009.1 hPa | 0 mm | - | - | - |
| 1777797616 | 12.22° C | 93% | 1009.9 hPa | 0 mm | - | - | - |
| 1777795216 | 12.22° C | 92% | 1010.5 hPa | 0 mm | - | - | - |
| 1777788616 | 12.78° C | 90% | 1011.1 hPa | 0 mm | - | - | - |
* Rain latest hour (hover to see other rain measurements)
** Current wind speed in m/s (hover to see current wind gust speed)